Time;durP1;ratioP1;P1;durP2;ratioP2;P2;SDS_P1;SDS_P2;PMS_P1;PMS_P2;Temp;Humidity;BMP_temperature;BMP_pressure;BME280_temperature;BME280_humidity;BME280_pressure;Samples;Min_cycle;Max_cycle;Signal;HPM_P1;HPM_P2
2022/12/19 00:01:16;;;;;;;53.00;17.40;;;;;;;-4.42;76.81;102372.02;126754;1296;108442;-69
2022/12/19 00:04:21;;;;;;;42.20;16.70;;;;;;;-4.34;76.92;102369.39;126650;1296;108533;-69
2022/12/19 00:07:26;;;;;;;50.90;17.70;;;;;;;-4.22;76.85;102355.98;126814;1291;108144;-69
2022/12/19 00:10:32;;;;;;;50.30;18.70;;;;;;;-4.15;76.88;102345.86;126674;1296;109161;-69
2022/12/19 00:13:38;;;;;;;40.30;16.00;;;;;;;-4.10;76.77;102341.83;126811;1296;107898;-69
2022/12/19 00:16:43;;;;;;;40.20;16.80;;;;;;;-4.11;76.54;102339.06;126706;1287;107536;-69
2022/12/19 00:19:49;;;;;;;42.30;16.90;;;;;;;-4.13;76.48;102336.63;126680;1295;109131;-69
2022/12/19 00:22:54;;;;;;;37.80;16.30;;;;;;;-4.19;76.50;102340.32;126677;1296;108454;-70
2022/12/19 00:26:10;;;;;;;36.40;15.50;;;;;;;-4.21;76.55;102340.48;126772;1296;108092;-69
2022/12/19 00:29:16;;;;;;;42.30;16.40;;;;;;;-4.26;76.43;102342.25;126750;1302;107233;-70
2022/12/19 00:32:22;;;;;;;36.80;17.00;;;;;;;-4.30;76.45;102347.67;126710;1299;107989;-70
2022/12/19 00:35:28;;;;;;;38.30;16.70;;;;;;;-4.34;76.43;102352.89;126641;1295;108495;-69
2022/12/19 00:38:34;;;;;;;57.10;19.90;;;;;;;-4.41;76.32;102356.56;126854;1295;108160;-70
2022/12/19 00:41:41;;;;;;;66.30;21.90;;;;;;;-4.49;76.23;102353.46;126998;1288;107502;-69
2022/12/19 00:44:48;;;;;;;51.30;18.90;;;;;;;-4.57;76.23;102350.70;126772;1296;107655;-69
2022/12/19 00:47:54;;;;;;;49.00;18.60;;;;;;;-4.58;76.25;102349.84;126801;1294;108034;-69
2022/12/19 00:51:02;;;;;;;43.50;17.50;;;;;;;-4.64;76.25;102349.34;126754;1295;107180;-69
2022/12/19 00:54:07;;;;;;;45.80;17.70;;;;;;;-4.68;76.41;102345.37;126810;1286;107511;-71
2022/12/19 00:57:12;;;;;;;37.30;15.50;;;;;;;-4.74;76.40;102347.64;126772;1296;108244;-69
2022/12/19 01:00:19;;;;;;;36.60;15.60;;;;;;;-4.78;76.23;102346.77;127004;1295;108138;-70
2022/12/19 01:03:26;;;;;;;36.20;14.40;;;;;;;-4.83;76.22;102353.20;126930;1296;107496;-72
2022/12/19 01:06:31;;;;;;;31.10;13.50;;;;;;;-4.93;76.19;102356.00;126507;1296;108085;-68
2022/12/19 01:09:37;;;;;;;36.70;14.60;;;;;;;-5.01;76.18;102355.48;126651;1296;109491;-70
2022/12/19 01:12:46;;;;;;;28.50;12.90;;;;;;;-5.02;76.34;102346.13;126720;1302;107970;-70
2022/12/19 01:15:51;;;;;;;32.40;13.20;;;;;;;-4.99;75.98;102336.91;126567;1294;108137;-69
2022/12/19 01:18:58;;;;;;;31.30;13.10;;;;;;;-4.93;76.18;102329.61;126864;1295;108548;-70
2022/12/19 01:22:03;;;;;;;32.30;13.90;;;;;;;-4.83;76.20;102334.64;126996;1286;107437;-69
2022/12/19 01:25:10;;;;;;;37.20;16.00;;;;;;;-4.81;75.84;102331.15;126791;1286;108448;-71
2022/12/19 01:28:17;;;;;;;30.60;13.10;;;;;;;-4.81;75.82;102322.64;126009;1296;1151524;-69
2022/12/19 01:31:22;;;;;;;32.80;13.60;;;;;;;-4.82;76.07;102319.18;126670;1295;108422;-68
2022/12/19 01:34:28;;;;;;;29.40;13.20;;;;;;;-4.82;75.87;102314.49;126609;1294;108152;-71
2022/12/19 01:37:36;;;;;;;28.40;12.30;;;;;;;-4.87;75.76;102307.21;126842;1292;108422;-70
2022/12/19 01:40:48;;;;;;;26.60;12.90;;;;;;;-4.92;75.74;102302.70;126766;1294;108138;-69
2022/12/19 01:43:59;;;;;;;29.40;12.00;;;;;;;-5.02;75.71;102304.98;126728;1295;107629;-69
2022/12/19 01:47:04;;;;;;;25.20;11.00;;;;;;;-5.12;75.64;102302.92;126541;1302;107501;-70
2022/12/19 01:50:15;;;;;;;29.10;11.60;;;;;;;-5.21;75.52;102297.56;126724;1295;110451;-68
2022/12/19 01:53:23;;;;;;;26.30;11.10;;;;;;;-5.30;75.66;102287.34;126689;1295;107148;-68
2022/12/19 01:56:32;;;;;;;28.70;12.80;;;;;;;-5.35;75.75;102291.51;126794;1286;108274;-69
2022/12/19 01:59:42;;;;;;;29.20;12.30;;;;;;;-5.41;75.72;102285.79;126591;1296;110477;-68
2022/12/19 02:02:52;;;;;;;31.90;13.40;;;;;;;-5.47;75.87;102279.04;126664;1296;108151;-70
2022/12/19 02:06:00;;;;;;;43.80;16.30;;;;;;;-5.53;75.81;102277.12;127062;1295;109167;-68
2022/12/19 02:09:05;;;;;;;37.20;14.00;;;;;;;-5.59;75.59;102274.36;126790;1289;107359;-69
2022/12/19 02:12:11;;;;;;;29.50;12.90;;;;;;;-5.67;75.83;102275.21;126608;1296;107920;-69
2022/12/19 02:15:17;;;;;;;35.00;13.80;;;;;;;-5.72;75.80;102280.59;126484;1296;108382;-69
2022/12/19 02:18:33;;;;;;;29.90;12.60;;;;;;;-5.74;75.79;102281.63;126628;1295;107509;-70
2022/12/19 02:21:49;;;;;;;27.10;11.10;;;;;;;-5.78;75.93;102289.27;126607;1295;108483;-69
2022/12/19 02:25:36;;;;;;;31.80;12.50;;;;;;;-5.77;76.00;102294.98;126631;1287;108490;-71
2022/12/19 02:29:12;;;;;;;44.50;18.70;;;;;;;-5.69;76.01;102293.41;126476;1296;108453;-68
2022/12/19 02:32:20;;;;;;;45.30;16.00;;;;;;;-5.56;75.66;102293.61;126475;1295;108222;-69
2022/12/19 02:35:35;;;;;;;33.20;13.50;;;;;;;-5.46;75.57;102291.52;126520;1291;105723;-69
2022/12/19 02:38:47;;;;;;;32.40;13.00;;;;;;;-5.43;75.33;102290.29;126659;1296;107575;-69
2022/12/19 02:41:57;;;;;;;31.70;13.40;;;;;;;-5.42;75.31;102287.17;126858;1294;107510;-68
2022/12/19 02:45:06;;;;;;;31.90;13.20;;;;;;;-5.46;75.29;102270.52;126678;1296;107392;-69
2022/12/19 02:48:12;;;;;;;32.70;12.30;;;;;;;-5.49;75.45;102265.33;126719;1286;107594;-69
2022/12/19 02:51:17;;;;;;;31.30;13.20;;;;;;;-5.58;74.93;102259.61;126675;1296;106679;-69
2022/12/19 02:54:25;;;;;;;27.10;12.00;;;;;;;-5.72;75.24;102258.91;126665;1295;108039;-68
2022/12/19 02:57:38;;;;;;;30.50;12.10;;;;;;;-5.82;75.14;102250.77;126666;1296;107514;-69
2022/12/19 03:00:55;;;;;;;31.60;12.60;;;;;;;-5.89;75.30;102242.27;126749;1296;107484;-73
2022/12/19 03:04:11;;;;;;;35.40;13.20;;;;;;;-6.02;75.22;102237.63;126781;1295;108139;-69
2022/12/19 03:07:29;;;;;;;36.90;15.00;;;;;;;-6.18;75.01;102225.13;126536;1290;110517;-68
2022/12/19 03:10:40;;;;;;;36.60;14.00;;;;;;;-6.28;75.40;102215.25;126737;1296;107454;-67
2022/12/19 03:13:53;;;;;;;31.70;13.60;;;;;;;-6.39;75.11;102219.20;126747;1295;107614;-69
2022/12/19 03:17:04;;;;;;;34.90;12.80;;;;;;;-6.52;75.38;102216.59;126552;1288;108137;-68
2022/12/19 03:20:24;;;;;;;34.60;13.10;;;;;;;-6.61;75.12;102204.10;126497;1296;107582;-69
2022/12/19 03:23:30;;;;;;;33.40;12.10;;;;;;;-6.70;75.28;102197.66;126743;1291;108012;-68
2022/12/19 03:26:42;;;;;;;29.40;12.60;;;;;;;-6.77;75.23;102204.55;126814;1295;107496;-69
2022/12/19 03:29:53;;;;;;;32.10;12.60;;;;;;;-6.84;75.29;102204.19;126685;1295;108217;-69
2022/12/19 03:33:00;;;;;;;33.40;13.40;;;;;;;-6.93;74.82;102205.02;126672;1302;107502;-66
2022/12/19 03:36:10;;;;;;;31.30;12.60;;;;;;;-6.97;75.02;102207.60;126781;1292;107541;-68
2022/12/19 03:39:17;;;;;;;28.00;12.10;;;;;;;-6.98;75.19;102203.63;126676;1286;107598;-67
2022/12/19 03:46:09;;;;;;;30.40;12.10;;;;;;;-6.84;75.25;102206.27;126290;1299;108595;-68
2022/12/19 03:49:15;;;;;;;29.30;12.70;;;;;;;-6.76;74.88;102211.15;126380;1301;107511;-68
2022/12/19 03:52:29;;;;;;;27.30;11.60;;;;;;;-6.69;75.20;102210.98;126780;1295;107138;-70
2022/12/19 03:55:41;;;;;;;28.10;11.60;;;;;;;-6.66;74.73;102204.42;126870;1295;107498;-70
2022/12/19 03:58:53;;;;;;;31.40;13.00;;;;;;;-6.66;74.25;102202.34;126701;1295;108198;-69
2022/12/19 04:02:00;;;;;;;30.10;11.90;;;;;;;-6.72;74.48;102200.77;126726;1295;108120;-74
2022/12/19 04:05:10;;;;;;;29.70;12.30;;;;;;;-6.77;74.98;102197.30;126795;1296;107557;-70
2022/12/19 04:08:17;;;;;;;31.70;13.10;;;;;;;-6.83;74.70;102187.06;126650;1286;108074;-71
2022/12/19 04:11:24;;;;;;;34.90;13.20;;;;;;;-6.90;74.60;102179.61;126537;1296;108490;-71
2022/12/19 04:14:33;;;;;;;37.90;15.40;;;;;;;-6.97;74.26;102176.29;126564;1295;108462;-71
2022/12/19 04:17:44;;;;;;;37.90;14.50;;;;;;;-7.04;74.39;102167.95;126862;1294;108191;-72
2022/12/19 04:20:54;;;;;;;34.00;14.20;;;;;;;-7.14;74.31;102173.80;126728;1295;106638;-70
2022/12/19 04:24:06;;;;;;;34.80;14.00;;;;;;;-7.23;74.26;102173.41;126982;1286;108508;-70
2022/12/19 04:27:14;;;;;;;32.40;12.30;;;;;;;-7.31;73.90;102169.73;126804;1288;107518;-71
2022/12/19 04:30:20;;;;;;;29.70;13.20;;;;;;;-7.39;74.14;102170.03;126669;1295;108137;-70
2022/12/19 04:33:25;;;;;;;33.50;13.70;;;;;;;-7.46;74.75;102173.46;126659;1299;107534;-69
2022/12/19 04:36:31;;;;;;;31.20;12.30;;;;;;;-7.52;74.51;102171.86;126613;1298;108002;-68
2022/12/19 04:39:36;;;;;;;26.60;11.10;;;;;;;-7.52;74.24;102175.50;126662;1295;108004;-69
2022/12/19 04:42:42;;;;;;;27.70;11.40;;;;;;;-7.50;74.25;102171.71;126718;1295;108229;-70
2022/12/19 04:45:47;;;;;;;28.10;10.90;;;;;;;-7.42;74.70;102172.63;126713;1296;107876;-69
2022/12/19 04:48:52;;;;;;;27.60;11.40;;;;;;;-7.34;74.11;102173.70;126679;1295;107884;-70
2022/12/19 04:51:58;;;;;;;31.50;12.80;;;;;;;-7.25;74.33;102172.02;126632;1295;107126;-70
2022/12/19 04:55:03;;;;;;;31.90;11.30;;;;;;;-7.18;74.31;102167.55;126750;1295;109096;-70
2022/12/19 04:58:09;;;;;;;31.70;12.10;;;;;;;-7.16;73.98;102160.46;126598;1295;108106;-69
2022/12/19 05:01:14;;;;;;;29.10;12.30;;;;;;;-7.18;73.36;102153.03;126679;1286;107987;-69
2022/12/19 05:04:20;;;;;;;28.00;12.20;;;;;;;-7.21;73.68;102156.65;126630;1286;108261;-70
2022/12/19 05:07:25;;;;;;;37.40;14.50;;;;;;;-7.25;73.11;102158.35;126697;1296;106657;-69
2022/12/19 05:10:31;;;;;;;60.10;21.00;;;;;;;-7.32;73.61;102156.77;126717;1295;109262;-72
2022/12/19 05:13:36;;;;;;;231.10;74.30;;;;;;;-7.43;73.65;102153.77;126738;1295;108441;-72
2022/12/19 05:16:42;;;;;;;90.20;35.50;;;;;;;-7.53;73.74;102155.27;126651;1292;107264;-69
2022/12/19 05:19:48;;;;;;;48.30;21.10;;;;;;;-7.61;73.80;102150.22;126764;1288;108092;-71
2022/12/19 05:22:54;;;;;;;39.10;16.30;;;;;;;-7.71;73.58;102148.77;126768;1295;107490;-71
2022/12/19 05:26:01;;;;;;;36.90;15.90;;;;;;;-7.81;73.39;102146.98;126625;1295;108583;-69
2022/12/19 05:29:07;;;;;;;46.00;18.20;;;;;;;-7.87;73.93;102148.49;126760;1295;107545;-72
2022/12/19 05:32:12;;;;;;;42.30;16.20;;;;;;;-7.96;73.95;102151.89;126672;1296;108147;-69
2022/12/19 05:35:17;;;;;;;32.50;13.40;;;;;;;-8.01;73.69;102147.18;126644;1295;109572;-70
2022/12/19 05:38:23;;;;;;;29.40;12.20;;;;;;;-7.98;73.56;102151.70;126688;1296;107967;-70
2022/12/19 05:41:29;;;;;;;39.50;17.40;;;;;;;-7.92;73.69;102154.16;126644;1286;107010;-69
2022/12/19 05:44:34;;;;;;;32.30;13.50;;;;;;;-7.85;73.39;102155.77;126839;1293;108430;-70
2022/12/19 05:47:41;;;;;;;33.20;13.30;;;;;;;-7.80;73.27;102156.49;126848;1288;108444;-71
2022/12/19 05:50:50;;;;;;;42.10;15.40;;;;;;;-7.73;73.46;102144.95;126747;1292;108228;-69
2022/12/19 05:53:55;;;;;;;43.00;16.30;;;;;;;-7.68;73.24;102136.86;126906;1294;107238;-70
2022/12/19 05:57:01;;;;;;;43.70;16.60;;;;;;;-7.69;73.25;102136.52;126988;1295;106276;-70
2022/12/19 06:00:09;;;;;;;47.40;16.50;;;;;;;-7.72;72.93;102140.83;127003;1291;108099;-72
2022/12/19 06:03:17;;;;;;;61.70;22.70;;;;;;;-7.77;72.82;102133.54;126981;1295;107101;-69
2022/12/19 06:06:24;;;;;;;47.60;18.00;;;;;;;-7.82;73.20;102127.63;126837;1286;108247;-70
2022/12/19 06:09:30;;;;;;;42.30;15.40;;;;;;;-7.93;73.09;102123.59;126867;1286;107221;-70
2022/12/19 06:12:35;;;;;;;45.30;18.00;;;;;;;-8.04;72.50;102119.35;126684;1291;108158;-71
2022/12/19 06:15:41;;;;;;;53.40;19.30;;;;;;;-8.16;72.83;102118.05;126628;1295;108463;-70
2022/12/19 06:18:47;;;;;;;50.50;18.90;;;;;;;-8.26;72.82;102114.54;126743;1295;110460;-69
2022/12/19 06:21:52;;;;;;;49.80;17.50;;;;;;;-8.39;72.41;102114.77;126700;1278;107510;-69
2022/12/19 06:24:58;;;;;;;50.90;17.40;;;;;;;-8.48;72.61;102112.84;126916;1286;106375;-74
2022/12/19 06:28:03;;;;;;;42.30;15.60;;;;;;;-8.56;72.50;102111.55;126812;1286;107271;-74
2022/12/19 06:31:10;;;;;;;38.60;13.80;;;;;;;-8.61;72.74;102111.33;126847;1291;107589;-76
2022/12/19 06:34:16;;;;;;;39.60;14.50;;;;;;;-8.59;72.18;102110.14;126861;1292;107360;-73
2022/12/19 06:37:21;;;;;;;38.70;13.60;;;;;;;-8.57;72.46;102116.36;126785;1294;107995;-72
2022/12/19 06:43:49;;;;;;;50.70;19.40;;;;;;;-8.41;72.25;102123.91;127015;1294;107088;-68
2022/12/19 06:46:55;;;;;;;45.70;17.50;;;;;;;-8.35;72.03;102121.02;126901;1295;108103;-68
2022/12/19 06:50:00;;;;;;;45.10;17.00;;;;;;;-8.30;72.19;102122.44;126785;1289;107865;-67
2022/12/19 06:53:06;;;;;;;45.40;17.80;;;;;;;-8.21;71.94;102124.58;126564;1289;108148;-72
2022/12/19 06:56:13;;;;;;;43.90;17.30;;;;;;;-8.16;72.09;102123.06;126430;1296;107547;-70
2022/12/19 06:59:19;;;;;;;42.30;15.70;;;;;;;-8.12;72.11;102120.33;126534;1295;107525;-68
2022/12/19 07:02:29;;;;;;;40.80;15.70;;;;;;;-8.13;71.78;102119.11;126462;1295;109137;-68
2022/12/19 07:05:35;;;;;;;36.60;14.70;;;;;;;-8.16;72.00;102119.96;126558;1295;111456;-68
2022/12/19 07:08:40;;;;;;;42.60;15.80;;;;;;;-8.22;71.62;102119.40;126554;1295;108582;-69
2022/12/19 07:11:46;;;;;;;38.60;15.60;;;;;;;-8.25;71.48;102120.75;126780;1296;108206;-70
2022/12/19 07:14:51;;;;;;;40.90;15.70;;;;;;;-8.32;71.46;102127.95;126763;1294;108274;-69
2022/12/19 07:17:57;;;;;;;51.20;18.70;;;;;;;-8.34;71.37;102127.94;126753;1295;108142;-70
2022/12/19 07:21:04;;;;;;;49.70;18.70;;;;;;;-8.36;71.97;102128.77;126659;1294;107983;-69
2022/12/19 07:24:12;;;;;;;45.10;15.50;;;;;;;-8.40;71.57;102122.72;126673;1295;106525;-72
2022/12/19 07:27:17;;;;;;;35.90;13.70;;;;;;;-8.45;71.57;102122.17;126723;1296;108110;-69
2022/12/19 07:30:22;;;;;;;37.70;14.10;;;;;;;-8.44;71.47;102119.77;126663;1295;107880;-68
2022/12/19 07:33:28;;;;;;;38.30;15.40;;;;;;;-8.36;71.18;102122.22;126653;1292;108317;-69
2022/12/19 07:36:33;;;;;;;35.60;13.50;;;;;;;-8.28;71.54;102117.97;126627;1286;108066;-68
2022/12/19 07:39:39;;;;;;;35.20;13.10;;;;;;;-8.12;71.84;102126.89;126676;1286;108266;-68
2022/12/19 07:42:45;;;;;;;36.00;14.20;;;;;;;-7.94;71.49;102122.71;126693;1286;108425;-68
2022/12/19 07:45:55;;;;;;;42.30;15.50;;;;;;;-7.77;71.43;102123.16;126706;1295;108044;-69
2022/12/19 07:49:01;;;;;;;38.10;15.40;;;;;;;-7.66;71.50;102123.41;126826;1294;107537;-70
2022/12/19 07:52:08;;;;;;;43.50;16.80;;;;;;;-7.61;70.93;102117.55;126424;1296;107330;-70
2022/12/19 07:55:14;;;;;;;36.90;15.70;;;;;;;-7.59;71.38;102119.30;126459;1295;108184;-68
2022/12/19 07:58:19;;;;;;;44.40;16.80;;;;;;;-7.58;71.00;102117.56;126543;1295;108138;-70
2022/12/19 08:01:24;;;;;;;42.70;16.60;;;;;;;-7.59;70.77;102111.34;126524;1295;108165;-68
2022/12/19 08:04:30;;;;;;;42.20;16.90;;;;;;;-7.58;70.69;102104.44;126517;1287;107021;-68
2022/12/19 08:07:35;;;;;;;50.80;21.00;;;;;;;-7.58;71.16;102109.10;126539;1278;108129;-69
2022/12/19 08:10:41;;;;;;;48.00;17.60;;;;;;;-7.62;70.44;102110.47;126627;1296;108355;-71
2022/12/19 08:13:48;;;;;;;46.90;18.80;;;;;;;-7.65;70.78;102111.64;126661;1288;106632;-68
2022/12/19 08:16:53;;;;;;;49.30;19.10;;;;;;;-7.75;70.93;102109.36;126715;1296;107476;-68
2022/12/19 08:19:58;;;;;;;46.50;19.80;;;;;;;-7.82;70.52;102110.69;126712;1286;108369;-67
2022/12/19 08:23:04;;;;;;;39.50;15.40;;;;;;;-7.85;70.90;102108.44;126785;1296;108146;-69
2022/12/19 08:26:13;;;;;;;37.00;14.50;;;;;;;-7.85;70.31;102106.20;126627;1295;109301;-70
2022/12/19 08:29:18;;;;;;;39.40;15.60;;;;;;;-7.90;70.66;102094.07;126850;1296;108380;-68
2022/12/19 08:32:24;;;;;;;36.20;15.60;;;;;;;-7.86;71.29;102086.14;126988;1282;108150;-66
2022/12/19 08:35:29;;;;;;;36.10;14.90;;;;;;;-7.74;70.89;102079.47;126758;1296;108418;-68
2022/12/19 08:38:35;;;;;;;38.80;15.00;;;;;;;-7.62;70.76;102076.75;126610;1275;108592;-69
2022/12/19 08:41:41;;;;;;;37.30;14.60;;;;;;;-7.46;71.01;102069.74;126743;1295;107601;-69
2022/12/19 08:44:46;;;;;;;44.00;17.50;;;;;;;-7.30;70.78;102068.77;126696;1286;108057;-69
2022/12/19 08:47:52;;;;;;;42.60;16.60;;;;;;;-7.16;70.60;102067.27;126774;1295;108146;-70
2022/12/19 08:51:00;;;;;;;44.80;17.50;;;;;;;-7.05;70.09;102056.05;126756;1295;105826;-70
2022/12/19 08:54:06;;;;;;;49.00;18.80;;;;;;;-7.00;70.65;102047.06;126842;1296;107199;-69
2022/12/19 08:57:11;;;;;;;44.80;18.10;;;;;;;-6.98;70.12;102033.57;126825;1278;107776;-68
2022/12/19 09:00:19;;;;;;;51.10;19.70;;;;;;;-6.99;69.60;102033.21;126968;1295;107108;-68
2022/12/19 09:03:25;;;;;;;50.40;19.40;;;;;;;-7.00;70.34;102044.81;126916;1295;106289;-69
2022/12/19 09:06:31;;;;;;;49.90;18.30;;;;;;;-6.97;70.27;102044.98;126968;1295;108385;-68
2022/12/19 09:09:36;;;;;;;47.60;18.60;;;;;;;-6.93;70.33;102036.00;126921;1297;107276;-70
2022/12/19 09:12:41;;;;;;;46.20;18.30;;;;;;;-6.96;70.61;102036.16;126809;1292;108178;-69
2022/12/19 09:15:47;;;;;;;46.40;19.40;;;;;;;-6.97;70.09;102029.93;126791;1292;110956;-68
2022/12/19 09:18:54;;;;;;;46.60;19.80;;;;;;;-6.96;70.48;102017.99;126726;1295;108121;-68
2022/12/19 09:21:59;;;;;;;54.90;21.00;;;;;;;-6.92;70.36;102005.02;126726;1295;108115;-70
2022/12/19 09:25:06;;;;;;;49.80;19.30;;;;;;;-6.90;70.56;102006.40;126797;1278;108046;-68
2022/12/19 09:28:12;;;;;;;48.40;19.20;;;;;;;-6.86;70.41;102006.08;126918;1296;106727;-68
2022/12/19 09:31:20;;;;;;;45.90;19.70;;;;;;;-6.83;70.46;102009.54;126759;1293;108108;-67
2022/12/19 09:34:27;;;;;;;50.00;19.30;;;;;;;-6.82;69.85;102005.04;126655;1296;108441;-68
2022/12/19 09:37:32;;;;;;;49.70;20.00;;;;;;;-6.81;69.95;102005.55;126687;1287;107556;-72
2022/12/19 09:40:52;;;;;;;46.20;18.60;;;;;;;-6.77;70.44;102012.48;126691;1296;108331;-67
2022/12/19 09:44:07;;;;;;;49.60;18.80;;;;;;;-6.73;70.05;102007.46;126679;1295;108449;-68
2022/12/19 09:47:16;;;;;;;50.70;20.80;;;;;;;-6.73;70.19;102001.57;126649;1295;110598;-69
2022/12/19 09:50:35;;;;;;;45.90;19.60;;;;;;;-6.74;69.94;101986.68;126764;1296;107124;-68
2022/12/19 09:53:58;;;;;;;44.20;18.80;;;;;;;-6.74;70.31;101978.56;126719;1295;107483;-73
2022/12/19 09:57:10;;;;;;;43.80;18.40;;;;;;;-6.73;70.25;101971.98;126902;1294;108038;-69
2022/12/19 10:00:19;;;;;;;50.20;19.00;;;;;;;-6.68;69.86;101959.86;126806;1296;110377;-68
2022/12/19 10:03:28;;;;;;;50.20;18.30;;;;;;;-6.66;69.98;101948.63;126685;1300;107264;-69
2022/12/19 10:06:34;;;;;;;46.90;19.50;;;;;;;-6.61;70.08;101946.17;126909;1286;108298;-68
2022/12/19 10:09:39;;;;;;;52.10;21.80;;;;;;;-6.60;70.20;101942.55;126832;1294;108044;-68
2022/12/19 10:13:10;;;;;;;46.10;19.20;;;;;;;-6.52;70.20;101947.21;126723;1296;107502;-69
2022/12/19 10:16:25;;;;;;;48.00;18.30;;;;;;;-6.45;69.73;101945.80;126786;1295;107244;-69
2022/12/19 10:19:42;;;;;;;42.20;18.10;;;;;;;-6.41;69.92;101941.48;126606;1286;107504;-69
2022/12/19 10:22:56;;;;;;;41.50;18.70;;;;;;;-6.37;69.68;101936.09;126446;1294;108257;-68
2022/12/19 10:26:10;;;;;;;46.90;18.70;;;;;;;-6.29;70.02;101923.08;126510;1286;108164;-69
2022/12/19 10:29:38;;;;;;;50.30;20.80;;;;;;;-6.24;69.21;101911.13;126651;1294;107322;-69
2022/12/19 10:32:56;;;;;;;47.10;19.10;;;;;;;-6.26;69.26;101902.30;126763;1286;108123;-69
2022/12/19 10:36:05;;;;;;;43.70;18.70;;;;;;;-6.24;69.55;101894.49;126852;1298;105388;-69
2022/12/19 10:39:20;;;;;;;44.50;19.40;;;;;;;-6.20;69.52;101887.20;126951;1286;108111;-69
2022/12/19 10:42:37;;;;;;;44.20;19.20;;;;;;;-6.21;69.16;101883.23;126752;1296;108217;-69
2022/12/19 10:45:46;;;;;;;46.90;19.00;;;;;;;-6.20;69.29;101871.44;126699;1296;105385;-69
2022/12/19 10:48:52;;;;;;;44.50;17.40;;;;;;;-6.17;69.47;101857.22;126733;1302;107356;-69
2022/12/19 10:52:04;;;;;;;43.50;18.60;;;;;;;-6.12;69.24;101855.64;126749;1296;106265;-67
2022/12/19 10:55:29;;;;;;;45.20;18.20;;;;;;;-6.08;69.15;101853.71;126757;1286;108449;-69
2022/12/19 10:58:38;;;;;;;47.40;18.30;;;;;;;-6.04;69.41;101842.95;126763;1294;108092;-70
2022/12/19 11:01:43;;;;;;;47.80;18.40;;;;;;;-5.99;69.66;101834.27;126979;1294;107545;-70
2022/12/19 11:04:49;;;;;;;46.30;19.20;;;;;;;-5.97;69.09;101821.42;126504;1296;108467;-70
2022/12/19 11:08:15;;;;;;;46.70;18.50;;;;;;;-5.97;69.18;101811.38;126544;1286;108728;-70
2022/12/19 11:11:22;;;;;;;42.20;18.60;;;;;;;-5.95;69.45;101808.41;126697;1287;110306;-70
2022/12/19 11:14:31;;;;;;;42.20;18.60;;;;;;;-5.93;69.25;101804.91;126652;1295;108144;-69
2022/12/19 11:17:38;;;;;;;44.30;18.80;;;;;;;-5.92;69.04;101802.48;126685;1295;105293;-69
2022/12/19 11:20:55;;;;;;;40.00;18.00;;;;;;;-5.89;69.04;101789.80;126676;1295;108437;-69
2022/12/19 11:24:06;;;;;;;41.70;17.80;;;;;;;-5.86;69.34;101781.65;126828;1295;108218;-69
2022/12/19 11:27:32;;;;;;;44.60;17.60;;;;;;;-5.85;69.38;101768.47;126750;1295;107486;-70
2022/12/19 11:30:38;;;;;;;44.50;18.80;;;;;;;-5.83;69.48;101768.10;126663;1296;107868;-70
2022/12/19 11:33:46;;;;;;;45.70;19.40;;;;;;;-5.79;69.57;101761.84;126646;1295;108146;-71
2022/12/19 11:36:57;;;;;;;47.20;19.50;;;;;;;-5.76;69.39;101755.05;126924;1296;106088;-70
2022/12/19 11:40:06;;;;;;;47.10;19.50;;;;;;;-5.71;69.87;101747.73;126727;1299;109364;-69
2022/12/19 11:43:16;;;;;;;53.00;20.00;;;;;;;-5.66;69.82;101743.17;126695;1296;107527;-70
2022/12/19 11:46:36;;;;;;;73.30;27.70;;;;;;;-5.60;69.33;101744.88;126674;1295;107504;-70
2022/12/19 11:49:45;;;;;;;65.30;27.90;;;;;;;-5.58;69.78;101739.65;126647;1286;108148;-71
2022/12/19 11:53:01;;;;;;;44.70;18.50;;;;;;;-5.55;69.54;101729.56;126907;1285;107664;-70
2022/12/19 11:56:11;;;;;;;52.90;22.60;;;;;;;-5.50;69.94;101723.98;126694;1295;107492;-70
2022/12/19 11:59:23;;;;;;;55.30;22.80;;;;;;;-5.49;69.63;101718.77;126692;1295;108219;-71
2022/12/19 12:02:56;;;;;;;55.00;23.20;;;;;;;-5.49;69.65;101730.20;126610;1292;108190;-70
2022/12/19 12:06:10;;;;;;;51.50;20.90;;;;;;;-5.47;69.49;101724.64;126651;1294;108231;-70
2022/12/19 12:09:23;;;;;;;46.70;19.90;;;;;;;-5.51;69.58;101713.05;126784;1295;110347;-70
2022/12/19 12:12:32;;;;;;;49.90;21.00;;;;;;;-5.55;69.70;101696.45;126974;1294;108003;-70
2022/12/19 12:15:51;;;;;;;50.50;21.30;;;;;;;-5.59;69.82;101693.54;126685;1295;108029;-70
2022/12/19 12:19:11;;;;;;;55.40;22.40;;;;;;;-5.62;69.94;101695.98;126699;1299;108417;-69
2022/12/19 12:22:32;;;;;;;51.70;20.70;;;;;;;-5.63;70.02;101702.08;126641;1286;108445;-68
2022/12/19 12:25:53;;;;;;;55.10;21.60;;;;;;;-5.63;69.85;101695.31;126641;1296;108459;-69
2022/12/19 12:29:11;;;;;;;57.40;24.00;;;;;;;-5.62;70.07;101683.16;126781;1294;107714;-69
2022/12/19 12:32:28;;;;;;;52.20;20.80;;;;;;;-5.59;69.99;101678.63;126712;1295;110428;-69
2022/12/19 12:35:38;;;;;;;47.10;20.60;;;;;;;-5.53;70.18;101684.11;126799;1295;108240;-68
2022/12/19 12:39:02;;;;;;;48.20;20.00;;;;;;;-5.48;70.11;101678.70;126710;1296;107579;-69
2022/12/19 12:42:19;;;;;;;45.10;19.60;;;;;;;-5.44;70.12;101675.35;126719;1295;108088;-69
2022/12/19 12:45:30;;;;;;;47.10;19.30;;;;;;;-5.40;70.21;101664.41;126673;1299;107462;-68
2022/12/19 12:48:42;;;;;;;34.40;14.20;;;;;;;-5.36;70.17;101671.80;126724;1295;108473;-69
2022/12/19 12:51:48;;;;;;;46.30;19.30;;;;;;;-5.34;70.30;101669.35;126733;1280;107996;-69
2022/12/19 12:54:56;;;;;;;51.80;21.00;;;;;;;-5.32;70.21;101657.35;126677;1288;107251;-69
2022/12/19 12:58:01;;;;;;;45.70;19.10;;;;;;;-5.32;70.41;101657.19;126706;1294;107535;-69
2022/12/19 13:01:14;;;;;;;49.60;20.70;;;;;;;-5.30;70.47;101645.73;126625;1296;108419;-69
2022/12/19 13:04:42;;;;;;;53.00;21.50;;;;;;;-5.29;70.24;101636.86;126661;1301;107943;-68
2022/12/19 13:07:54;;;;;;;55.40;21.90;;;;;;;-5.31;70.33;101633.60;126658;1295;108567;-69
2022/12/19 13:11:01;;;;;;;75.80;27.20;;;;;;;-5.33;70.46;101627.03;126753;1296;107589;-69
2022/12/19 13:14:43;;;;;;;56.20;23.80;;;;;;;-5.31;70.46;101623.71;126649;1285;110377;-70
2022/12/19 13:18:30;;;;;;;74.10;26.30;;;;;;;-5.31;70.38;101617.46;126902;1296;108033;-69
2022/12/19 13:22:15;;;;;;;67.10;26.30;;;;;;;-5.34;70.71;101611.77;126823;1293;107967;-70
2022/12/19 13:25:50;;;;;;;68.50;25.20;;;;;;;-5.33;70.74;101611.77;126899;1295;107119;-70
2022/12/19 13:29:16;;;;;;;72.90;28.10;;;;;;;-5.33;70.79;101611.77;125777;1295;1249876;-71
2022/12/19 13:32:23;;;;;;;55.80;22.40;;;;;;;-5.36;70.73;101610.05;126751;1288;107482;-69
2022/12/19 13:35:36;;;;;;;50.30;22.10;;;;;;;-5.38;70.97;101604.88;126749;1295;107622;-69
2022/12/19 13:38:49;;;;;;;55.60;22.90;;;;;;;-5.39;70.88;101602.30;126670;1279;106483;-70
2022/12/19 13:45:32;;;;;;;75.20;26.50;;;;;;;-5.41;71.25;101597.14;126908;1296;107564;-70
2022/12/19 13:48:43;;;;;;;55.00;23.20;;;;;;;-5.43;71.10;101593.68;126918;1296;107544;-71
2022/12/19 13:51:53;;;;;;;67.70;25.30;;;;;;;-5.46;71.22;101589.20;126641;1294;108190;-70
2022/12/19 13:55:00;;;;;;;65.50;25.00;;;;;;;-5.48;71.24;101579.88;126713;1300;107242;-70
2022/12/19 13:58:07;;;;;;;55.50;23.20;;;;;;;-5.50;71.21;101571.91;126918;1296;107431;-69
2022/12/19 14:01:16;;;;;;;57.90;26.20;;;;;;;-5.54;71.11;101558.77;126804;1302;107263;-71
2022/12/19 14:04:29;;;;;;;56.30;23.70;;;;;;;-5.54;71.39;101551.49;126794;1296;107488;-71
2022/12/19 14:07:40;;;;;;;58.20;24.20;;;;;;;-5.56;71.36;101546.14;126736;1300;107202;-69
2022/12/19 14:10:49;;;;;;;57.00;24.00;;;;;;;-5.59;71.55;101544.10;126847;1279;107406;-69
2022/12/19 14:17:23;;;;;;;46.90;18.80;;;;;;;-5.63;71.62;101534.63;126833;1302;108260;-68